Aérodrome :
LOGIN :

S'inscrire | Disclaimer

   EN    FR    IT 

 










Légende :    VFR   VFR Marginal   IFR   IFR Intensif   IFR Très Intensif
Visi : 
Plafond : 
>= 8 km
>= 3000ft
5 à 8 km
1000 à 3000 ft
1500m à 5 km
500 à 1000 ft
800 à 1500m
200 à 500 ft
< 800m
< 200 ft
Symboles :   Orages  Brouillard  Fortes neiges  Fortes précipitations  Vent > 20 kt
SIGMETs :   Divers  Orages  Givrage  Turbulence  Onde Orograph.  Cendres Volcan.






- Altitude de l'aérodrome : 194 ft


EBCV - Chièvres

DERNIER METAR :
  • 170325Z AUTO 20014KT 9999 -RA BKN015/// BKN046/// 10/08 Q1000 WHT

METARs EXPIRÉS :
  • 170255Z AUTO 20015KT 9999 BKN017/// BKN024/// 10/08 Q1000 WHT
  • 170242Z AUTO 20014KT 9999 BKN017/// 10/08 Q1000 WHT
  • 170225Z AUTO 21013KT 9999 FEW014/// BKN025/// BKN044/// 10/08 Q1000 BLU
  • 170155Z AUTO 20012KT 9999 BKN022/// OVC067/// 10/08 Q1000 WHT
  • 170125Z AUTO 20013KT 9999 BKN019/// OVC053/// 10/09 Q1000 WHT
  • 170117Z AUTO 20014KT 9999 OVC024/// 10/09 Q1000 WHT
  • 170055Z AUTO 20013KT 9999 FEW011/// BKN027/// 10/09 Q1000 BLU
  • 170025Z AUTO 20011KT 9999 SCT026/// BKN052/// BKN061/// 10/09 Q1000 BLU

TAF TAF EBCV
Valide du 16 à 19h jusqu'au 17 à 07h UTC


161541Z 1619/1707 21007KT 9999 SCT023 BKN035 BKN050
TEMPO 1619/1707 21010G20KT 6000 -SHRA BKN013TCU
PROB30
TEMPO 1619/1707 20015G25KT 3500 TSRAGS SCT010 SCT012CB BY EBWM



MET'MAP, la Météo Aéronautique d'un coup d'oeil ! - Copyright ORBIFLY Décembre 2007 - Disclaimer

ORBIFLY MET'MAP TEAM :

Programmation & Développement : Alexandra Zaïnal
Sur une idée originale de : Baudouin d'Aumeries
Assistance à la programmation : Marc-Olivier Méhu
Soutien technique & logistique : Manuel Goepfert

Contact : metmap@orbifly.com




SOURCES & CREDITS :

   NOAA